CheckWX is a tool to help pilots better visualize weather data.  It is not intended as a substitute for an official pre-flight weather briefing.

06:50:19 UTC

KTIK TAF
Tinker AFB Airport
Oklahoma City, Oklahoma, USA
TAF AMD KTIK 170500Z 1705/1807 35006KT 9999 FEW025 BKN030 BKN150 QNH2982INS BECMG 1707/1708 32006KT 4800 BR OVC006 QNH2982INS BECMG 1716/1717 34009KT 9999 NSW FEW006 QNH2992INS TX29/1722Z TN18/1712Z

Jun-17@
05:00 UTC

Jun-17 @ 05:00 UTC

Jun-17@
07:00 UTC

Jun-17 @ 07:00 UTC

TAF AMD KTIK 170500Z 1705/1807 35006KT 9999 FEW025 BKN030 BKN150 QNH2982INS
Wind
  • 350° at 6 KTS
Cloud Levels
  • Few at 2,500' AGL
  • Broken at 3,000' AGL
  • Broken at 15,000' AGL

Jun-17@
07:00 UTC

Jun-17 @ 07:00 UTC

Jun-17@
16:00 UTC

Jun-17 @ 16:00 UTC

BECMG 1707/1708 32006KT 4800 BR OVC006 QNH2982INS

Becoming

Becoming Conditions expected by Mon, Jun 17, 2019 @ 08:00 UTC

Wind
  • 320° at 6 KTS
Conditions
Mist
Cloud Levels
  • Overcast at 600' AGL

Jun-17@
16:00 UTC

Jun-17 @ 16:00 UTC

Jun-18@
07:00 UTC

Jun-18 @ 07:00 UTC

BECMG 1716/1717 34009KT 9999 NSW FEW006 QNH2992INS TX29/1722Z TN18/1712Z

Becoming

Becoming Conditions expected by Mon, Jun 17, 2019 @ 17:00 UTC

Wind
  • 340° at 9 KTS
Conditions
No significant weather
Cloud Levels
  • Few at 600' AGL